Accueil
METAR-TAF:

METAR-TAF

Aéroports :

Lugano, Suisse

Aéroport de Lugano

latitude: 46-00N, longitude: 008-58E, altitude: 273 m

Observation

Le bulletin a été fait il y a 26 minutes, à 06:20 UTC
Vent 1 kt de direction variable
Température 12°C
Humidité 88%
Pression 1019 hPa
Visibilité 10 km ou plus
pas de nuages en-dessous de 1500 mètres et pas de cumulonimbus.

METAR: LSZA 220620Z VRB01KT CAVOK 12/10 Q1019 NOSIG

Heure: 08:46 (06:46 UTC)

Prévision

Le bulletin a été fait il y a 1 heure et 21 minutes, à 05:25 UTC
Prévision valable du 22 à 06 UTC au 22 à 15 UTC
Vent 3 kt de direction variable
Visibilité 10 km ou plus
pas de nuages en-dessous de 1500 mètres et pas de cumulonimbus.

TAF: LSZA 220525Z 2206/2215 VRB03KT CAVOK

Observations et prévisions météorologiques de plus de 4000 aéroports (messages METAR et TAF).

Les stations disponibles sont représentées par des disques jaunes et rouges sur la carte.

Passer la souris dessus pour voir le nom de la station.

Cliquer dessus pour voir les observations et prévisions météorologiques.

Pour changer de carte: cliquez sur les boutons verts avec une croix noire pour zoomer, sur le bouton vert avec un tiret pour effectuer un zoom arrière, ou sur les flèches vertes pour les cartes adjacentes.


METAR-TAF: